Pagina principale
METAR-TAF:

METAR-TAF

Aeroporti :

Aeroporto di Rimini-Miramare

Rimini, Italia

latitudine: 44-02N, longitudine: 012-37E, altezza: 12 m

Osservazione

Il bollettino è stato emesso 25 minuti fa, alle 09:20 UTC
Vento 10 kt da ovest
Temperature 17°C
Umidità 94%
Pressione 1019 hPa
Visibilità: 3000 m
Nubi sparse ad un'altezza di 500 ft
Cielo coperto ad un'altezza di 1300 ft
foschia

METAR: LIPR 170920Z 27010KT 3000 BR SCT005 OVC013 17/16 Q1019

Ora: 11:45 (09:45 UTC)

Previsione

Il bollettino è stato emesso 1 ora e 45 minuti fa, alle 08:00 UTC
Previsione valida dal 17 alle 09 UTC al 17 alle 18 UTC
Vento 5 kt da direzioni variabili
Visibilità: 3000 m
Nubi sparse ad un'altezza di 1000 ft
Nuvoloso ad un'altezza di 1500 ft
foschia
Temporaneamente
dal 17 alle 09 UTC al 17 alle 18 UTC
temporale, pioggia

TAF: LIPR 170800Z 1709/1718 VRB05KT 3000 BR SCT010 BKN015 TEMPO 1709/1718 TSRA

Osservazioni e previsioni meteorologiche di più di 4000 aeroporti (messaggi METAR e TAF).

Le stazioni disponibili sono rappresentate dai dischi gialli e rossi sulla carta.

Puntare il mouse per vedere il nome della stazione.

Clicca sopra per visualizzare le osservazioni e previsioni meteorologiche.

Per cambiare la mappa : fare clic sui pulsanti verdi con una croce nera per ingrandire, il pulsante verde con un trattino per diminuire, o sulla freccia verde per le mappe adiacenti.


METAR-TAF: